createdAt,value
2023-02-22T00:01:35.383Z,10.53
2023-02-22T00:04:03.791Z,10.60
2023-02-22T00:06:31.090Z,11.07
2023-02-22T00:08:58.272Z,9.97
2023-02-22T00:11:25.021Z,11.40
2023-02-22T00:13:51.747Z,10.97
2023-02-22T00:16:20.347Z,11.60
2023-02-22T00:18:47.186Z,10.53
2023-02-22T00:21:14.477Z,11.10
2023-02-22T00:23:46.530Z,10.73
2023-02-22T00:26:18.929Z,9.07
2023-02-22T00:28:50.581Z,10.10
2023-02-22T00:31:18.065Z,10.27
2023-02-22T00:33:45.033Z,10.40
2023-02-22T00:36:12.552Z,8.80
2023-02-22T00:38:39.968Z,11.03
2023-02-22T00:41:07.217Z,10.00
2023-02-22T00:43:34.214Z,10.43
2023-02-22T00:46:01.044Z,10.47
2023-02-22T00:48:28.465Z,9.87
2023-02-22T00:50:55.417Z,10.20
2023-02-22T00:53:25.305Z,9.70
2023-02-22T00:55:52.379Z,10.10
2023-02-22T00:58:19.075Z,10.03
2023-02-22T01:00:45.933Z,10.00
2023-02-22T01:03:14.728Z,9.47
2023-02-22T01:05:41.638Z,9.97
2023-02-22T01:08:09.739Z,8.77
2023-02-22T01:10:36.620Z,8.60
2023-02-22T01:13:08.621Z,9.20
2023-02-22T01:15:36.986Z,10.43
2023-02-22T01:18:05.140Z,9.37
2023-02-22T01:20:32.320Z,10.27
2023-02-22T01:23:00.050Z,10.37
2023-02-22T01:25:28.643Z,10.20
2023-02-22T01:27:55.847Z,9.07
2023-02-22T01:30:24.693Z,9.57
2023-02-22T01:32:51.432Z,10.70
2023-02-22T01:35:20.182Z,10.80
2023-02-22T01:37:46.887Z,11.13
2023-02-22T01:40:20.383Z,11.00
2023-02-22T01:42:59.810Z,11.00
2023-02-22T01:45:35.122Z,12.87
2023-02-22T01:48:06.066Z,11.63
2023-02-22T01:50:34.233Z,11.40
2023-02-22T01:53:01.459Z,12.67
2023-02-22T01:55:28.267Z,11.60
2023-02-22T01:57:54.967Z,12.40
2023-02-22T02:00:22.267Z,11.67
2023-02-22T02:02:52.704Z,10.70
2023-02-22T02:05:19.524Z,10.77
2023-02-22T02:07:46.603Z,10.40
2023-02-22T02:10:15.414Z,10.37
2023-02-22T02:12:44.348Z,10.53
2023-02-22T02:15:31.592Z,11.17
2023-02-22T02:18:04.122Z,11.00
2023-02-22T02:20:44.853Z,9.43
2023-02-22T02:23:49.143Z,11.40
2023-02-22T02:26:30.858Z,11.17
2023-02-22T02:29:28.642Z,10.70
2023-02-22T02:32:14.063Z,10.77
2023-02-22T02:35:04.312Z,11.63
2023-02-22T02:37:45.032Z,10.83
2023-02-22T02:40:42.579Z,12.47
2023-02-22T02:43:30.674Z,10.93
2023-02-22T02:46:16.358Z,11.77
2023-02-22T02:48:46.688Z,9.90
2023-02-22T02:51:14.544Z,10.93
2023-02-22T02:53:43.484Z,10.80
2023-02-22T02:56:10.306Z,11.90
2023-02-22T02:58:52.780Z,10.83
2023-02-22T03:01:40.089Z,13.23
2023-02-22T03:04:20.474Z,12.00
2023-02-22T03:06:55.510Z,11.30
2023-02-22T03:09:40.869Z,10.50
2023-02-22T03:12:36.090Z,11.83
2023-02-22T03:15:05.716Z,11.37
2023-02-22T03:17:47.661Z,11.70
2023-02-22T03:20:31.826Z,10.90
2023-02-22T03:23:10.532Z,11.67
2023-02-22T03:25:40.308Z,11.00
2023-02-22T03:28:11.482Z,11.93
2023-02-22T03:30:40.830Z,11.23
2023-02-22T03:33:10.735Z,11.83
2023-02-22T03:35:48.241Z,11.40
2023-02-22T03:38:16.088Z,11.43
2023-02-22T03:40:45.345Z,12.33
2023-02-22T03:43:15.284Z,12.27
2023-02-22T03:45:43.541Z,13.07
2023-02-22T03:48:31.543Z,13.13
2023-02-22T03:50:58.545Z,11.57
2023-02-22T03:53:25.388Z,12.80
2023-02-22T03:55:52.139Z,11.37
2023-02-22T03:58:20.358Z,14.10
2023-02-22T04:00:47.061Z,12.70
2023-02-22T04:03:13.757Z,14.80
2023-02-22T04:05:40.430Z,12.40
2023-02-22T04:08:07.119Z,12.73
2023-02-22T04:10:33.856Z,14.50
2023-02-22T04:13:00.601Z,14.10
2023-02-22T04:15:27.333Z,13.87
2023-02-22T04:17:54.093Z,13.93
2023-02-22T04:20:25.428Z,13.20
2023-02-22T04:22:53.472Z,12.37
2023-02-22T04:25:20.612Z,15.20
2023-02-22T04:27:47.408Z,13.90
2023-02-22T04:30:14.308Z,14.50
2023-02-22T04:32:41.109Z,13.33
2023-02-22T04:35:08.181Z,13.17
2023-02-22T04:37:34.906Z,13.73
2023-02-22T04:40:02.077Z,13.63
2023-02-22T04:42:28.938Z,13.57
2023-02-22T04:44:55.679Z,13.80
2023-02-22T04:47:22.493Z,13.00
2023-02-22T04:49:49.190Z,12.70
2023-02-22T04:52:15.982Z,12.90
2023-02-22T04:54:42.743Z,13.90
2023-02-22T04:57:09.480Z,13.80
2023-02-22T04:59:36.133Z,12.40
2023-02-22T05:02:02.850Z,12.80
2023-02-22T05:04:30.567Z,13.23
2023-02-22T05:06:57.302Z,13.03
2023-02-22T05:09:23.976Z,13.23
2023-02-22T05:11:50.632Z,12.73
2023-02-22T05:14:17.326Z,13.40
2023-02-22T05:16:44.246Z,13.63
2023-02-22T05:19:10.882Z,13.70
2023-02-22T05:21:37.683Z,13.97
2023-02-22T05:24:04.541Z,13.43
2023-02-22T05:26:31.278Z,14.50
2023-02-22T05:28:57.961Z,13.40
2023-02-22T05:31:24.749Z,13.80
2023-02-22T05:33:51.559Z,12.63
2023-02-22T05:36:18.315Z,11.00
2023-02-22T05:38:44.991Z,14.07
2023-02-22T05:41:12.953Z,13.03
2023-02-22T05:43:40.192Z,12.97
2023-02-22T05:46:06.927Z,13.77
2023-02-22T05:48:33.841Z,13.13
2023-02-22T05:51:00.706Z,12.87
2023-02-22T05:53:27.745Z,12.50
2023-02-22T05:55:54.554Z,11.87
2023-02-22T05:58:21.474Z,13.33
2023-02-22T06:00:48.150Z,13.17
2023-02-22T06:03:14.853Z,13.83
2023-02-22T06:05:41.564Z,13.57
2023-02-22T06:08:08.551Z,13.20
2023-02-22T06:10:35.266Z,13.27
2023-02-22T06:13:02.096Z,12.93
2023-02-22T06:15:28.942Z,12.30
2023-02-22T06:17:57.842Z,12.80
2023-02-22T06:20:25.389Z,13.67
2023-02-22T06:22:53.574Z,12.47
2023-02-22T06:25:23.959Z,12.87
2023-02-22T06:27:50.685Z,12.57
2023-02-22T06:30:18.496Z,12.37
2023-02-22T06:32:45.347Z,13.07
2023-02-22T06:35:12.085Z,12.73
2023-02-22T06:37:39.961Z,12.03
2023-02-22T06:40:06.801Z,13.07
2023-02-22T06:42:33.597Z,11.97
2023-02-22T06:45:00.475Z,11.97
2023-02-22T06:47:27.224Z,12.60
2023-02-22T06:49:55.026Z,11.53
2023-02-22T06:52:21.803Z,13.00
2023-02-22T06:54:49.011Z,12.53
2023-02-22T06:57:15.754Z,12.37
2023-02-22T06:59:42.447Z,12.57
2023-02-22T07:02:11.578Z,11.50
2023-02-22T07:04:38.401Z,11.57
2023-02-22T07:07:05.175Z,11.10
2023-02-22T07:09:31.933Z,11.63
2023-02-22T07:11:58.675Z,13.30
2023-02-22T07:14:25.390Z,11.47
2023-02-22T07:16:52.158Z,12.43
2023-02-22T07:19:18.821Z,12.00
2023-02-22T07:21:47.928Z,11.70
2023-02-22T07:24:14.758Z,11.50
2023-02-22T07:26:41.988Z,11.73
2023-02-22T07:29:09.002Z,10.80
2023-02-22T07:31:39.639Z,11.33
2023-02-22T07:34:06.698Z,11.80
2023-02-22T07:36:33.380Z,12.10
2023-02-22T07:39:00.133Z,12.03
2023-02-22T07:41:26.793Z,12.50
2023-02-22T07:43:53.674Z,11.00
2023-02-22T07:46:20.350Z,11.17
2023-02-22T07:48:47.201Z,10.83
2023-02-22T07:51:16.726Z,11.10
2023-02-22T07:53:43.650Z,10.47
2023-02-22T07:56:10.363Z,11.27
2023-02-22T07:58:37.130Z,11.90
2023-02-22T08:01:03.999Z,11.70
2023-02-22T08:03:36.514Z,10.70
2023-02-22T08:06:03.980Z,10.37
2023-02-22T08:08:30.756Z,9.90
2023-02-22T08:10:57.673Z,10.80
2023-02-22T08:13:24.644Z,11.70
2023-02-22T08:15:53.476Z,9.40
2023-02-22T08:18:20.779Z,9.10
2023-02-22T08:20:48.221Z,11.23
2023-02-22T08:23:15.284Z,9.63
2023-02-22T08:25:42.032Z,10.57
2023-02-22T08:28:13.565Z,9.53
2023-02-22T08:30:40.776Z,9.70
2023-02-22T08:33:07.650Z,9.07
2023-02-22T08:35:34.496Z,9.40
2023-02-22T08:38:02.869Z,9.87
2023-02-22T08:40:33.709Z,10.07
2023-02-22T08:43:01.689Z,10.40
2023-02-22T08:45:28.745Z,10.47
2023-02-22T08:47:55.477Z,9.90
2023-02-22T08:50:24.317Z,10.87
2023-02-22T08:52:52.339Z,9.50
2023-02-22T08:55:22.955Z,8.80
2023-02-22T08:57:50.651Z,9.70
2023-02-22T09:00:18.590Z,8.20
2023-02-22T09:02:45.316Z,9.00
2023-02-22T09:05:11.997Z,8.00
2023-02-22T09:07:41.975Z,8.67
2023-02-22T09:10:11.856Z,8.40
2023-02-22T09:12:38.517Z,8.63
2023-02-22T09:15:05.248Z,10.13
2023-02-22T09:17:31.915Z,8.87
2023-02-22T09:19:58.607Z,9.00
2023-02-22T09:22:25.282Z,9.60
2023-02-22T09:24:52.537Z,8.57
2023-02-22T09:27:20.199Z,9.00
2023-02-22T09:29:48.761Z,7.80
2023-02-22T09:32:18.093Z,8.60
2023-02-22T09:34:46.319Z,9.63
2023-02-22T09:37:13.506Z,9.23
2023-02-22T09:39:40.303Z,7.23
2023-02-22T09:42:09.826Z,7.83
2023-02-22T09:44:43.101Z,7.90
2023-02-22T09:47:18.545Z,8.30
2023-02-22T09:49:58.641Z,7.87
2023-02-22T09:52:30.929Z,9.00
2023-02-22T09:55:28.665Z,9.80
2023-02-22T09:57:56.284Z,9.40
2023-02-22T10:00:29.321Z,9.83
2023-02-22T10:03:12.603Z,11.60
2023-02-22T10:05:44.337Z,10.03
2023-02-22T10:08:13.272Z,9.03
2023-02-22T10:10:42.354Z,9.60
2023-02-22T10:13:48.681Z,10.43
2023-02-22T10:16:37.270Z,11.27
2023-02-22T10:19:34.426Z,10.83
2023-02-22T10:22:05.009Z,9.90
2023-02-22T10:24:39.972Z,8.80
2023-02-22T10:27:08.401Z,8.30
2023-02-22T10:29:46.631Z,8.27
2023-02-22T10:32:17.363Z,8.30
2023-02-22T10:34:49.090Z,9.67
2023-02-22T10:37:30.037Z,8.10
2023-02-22T10:40:13.056Z,6.23
2023-02-22T10:42:39.715Z,6.53
2023-02-22T10:45:14.203Z,7.70
2023-02-22T10:47:40.881Z,9.73
2023-02-22T10:50:07.867Z,15.63
2023-02-22T10:52:34.784Z,9.77
2023-02-22T10:55:14.522Z,9.10
2023-02-22T10:57:42.443Z,6.70
2023-02-22T11:00:19.806Z,7.17
2023-02-22T11:02:59.411Z,6.10
2023-02-22T11:05:37.375Z,7.77
2023-02-22T11:08:22.128Z,6.63
2023-02-22T11:10:49.876Z,5.70
2023-02-22T11:13:39.779Z,5.20
2023-02-22T11:16:24.727Z,5.60
2023-02-22T11:18:51.754Z,6.00
2023-02-22T11:21:22.717Z,5.30
2023-02-22T11:23:50.283Z,6.20
2023-02-22T11:26:19.012Z,4.53
2023-02-22T11:28:49.392Z,5.00
2023-02-22T11:31:22.383Z,5.17
2023-02-22T11:34:07.276Z,5.20
2023-02-22T11:36:41.742Z,4.40
2023-02-22T11:39:35.547Z,4.63
2023-02-22T11:42:25.113Z,3.90
2023-02-22T11:45:17.157Z,3.30
2023-02-22T11:48:18.260Z,3.40
2023-02-22T11:51:00.224Z,3.70
2023-02-22T11:53:33.819Z,3.20
2023-02-22T11:56:13.905Z,3.13
2023-02-22T11:58:49.576Z,3.97
2023-02-22T12:01:37.959Z,3.13
2023-02-22T12:04:29.786Z,2.93
2023-02-22T12:07:17.656Z,3.10
2023-02-22T12:10:01.123Z,3.20
2023-02-22T12:13:01.998Z,3.60
2023-02-22T12:15:40.271Z,3.20
2023-02-22T12:18:14.172Z,3.10
2023-02-22T12:20:45.638Z,3.60
2023-02-22T12:23:12.905Z,3.57
2023-02-22T12:26:03.758Z,3.67
2023-02-22T12:28:34.143Z,4.00
2023-02-22T12:31:25.890Z,3.80
2023-02-22T12:34:02.356Z,3.40
2023-02-22T12:36:50.491Z,3.40
2023-02-22T12:39:40.983Z,2.97
2023-02-22T12:42:34.193Z,2.47
2023-02-22T12:45:07.848Z,2.20
2023-02-22T12:47:42.835Z,2.40
2023-02-22T12:50:23.420Z,2.60
2023-02-22T12:52:57.824Z,2.50
2023-02-22T12:55:25.490Z,2.57
2023-02-22T12:58:25.209Z,2.83
2023-02-22T13:01:07.045Z,3.00
2023-02-22T13:03:42.965Z,2.80
2023-02-22T13:06:24.777Z,3.00
2023-02-22T13:09:00.274Z,3.20
2023-02-22T13:11:45.801Z,2.73
2023-02-22T13:14:49.062Z,2.50
2023-02-22T13:17:33.769Z,2.83
2023-02-22T13:20:13.697Z,2.87
2023-02-22T13:22:59.285Z,2.40
2023-02-22T13:25:41.873Z,3.20
2023-02-22T13:28:26.177Z,2.87
2023-02-22T13:31:24.266Z,2.83
2023-02-22T13:34:01.083Z,2.83
2023-02-22T13:36:48.947Z,3.00
2023-02-22T13:39:29.220Z,2.57
2023-02-22T13:42:04.442Z,2.60
2023-02-22T13:44:43.407Z,2.97
2023-02-22T13:47:40.784Z,2.80
2023-02-22T13:50:21.569Z,3.00
2023-02-22T13:52:48.245Z,3.20
2023-02-22T13:55:17.827Z,2.80
2023-02-22T13:57:48.578Z,2.73
2023-02-22T14:00:15.277Z,3.83
2023-02-22T14:03:15.435Z,2.93
2023-02-22T14:05:44.870Z,2.80
2023-02-22T14:08:17.320Z,2.77
2023-02-22T14:10:43.982Z,2.90
2023-02-22T14:13:10.988Z,3.00
2023-02-22T14:16:00.133Z,3.43
2023-02-22T14:18:30.332Z,2.70
2023-02-22T14:21:22.240Z,3.10
2023-02-22T14:23:50.278Z,3.10
2023-02-22T14:26:30.078Z,2.57
2023-02-22T14:29:08.542Z,3.23
2023-02-22T14:32:15.158Z,4.77
2023-02-22T14:34:43.770Z,4.30
2023-02-22T14:37:17.585Z,4.20
2023-02-22T14:39:45.961Z,4.87
2023-02-22T14:42:17.885Z,4.90
2023-02-22T14:44:58.437Z,4.13
2023-02-22T14:47:29.386Z,4.87
2023-02-22T14:50:23.811Z,3.87
2023-02-22T14:53:28.654Z,5.03
2023-02-22T14:56:03.891Z,4.87
2023-02-22T14:59:07.844Z,4.80
2023-02-22T15:04:30.937Z,5.17
2023-02-22T15:06:58.909Z,4.60
2023-02-22T15:09:34.507Z,4.77
2023-02-22T15:12:04.939Z,5.97
2023-02-22T15:14:37.394Z,5.43
2023-02-22T15:17:25.111Z,4.23
2023-02-22T15:19:51.963Z,4.63
2023-02-22T15:22:26.698Z,5.90
2023-02-22T15:25:01.194Z,6.60
2023-02-22T15:27:28.528Z,7.17
2023-02-22T15:30:04.619Z,7.20
2023-02-22T15:32:36.301Z,7.77
2023-02-22T15:35:18.149Z,7.50
2023-02-22T15:37:45.761Z,7.77
2023-02-22T15:40:17.136Z,5.87
2023-02-22T15:42:49.159Z,7.57
2023-02-22T15:45:17.487Z,7.77
2023-02-22T15:47:44.161Z,6.50
2023-02-22T15:50:20.990Z,7.60
2023-02-22T15:52:53.535Z,7.87
2023-02-22T15:55:28.432Z,8.03
2023-02-22T15:57:56.263Z,6.40
2023-02-22T16:00:35.981Z,8.43
2023-02-22T16:03:12.398Z,7.90
2023-02-22T16:05:55.599Z,8.37
2023-02-22T16:08:54.765Z,8.40
2023-02-22T16:11:30.079Z,8.80
2023-02-22T16:14:04.954Z,9.33
2023-02-22T16:16:34.604Z,8.13
2023-02-22T16:19:35.809Z,9.23
2023-02-22T16:22:03.853Z,7.80
2023-02-22T16:24:35.464Z,8.37
2023-02-22T16:27:07.687Z,8.43
2023-02-22T16:29:34.496Z,9.50
2023-02-22T16:32:01.815Z,9.90
2023-02-22T16:34:28.567Z,14.57
2023-02-22T16:36:55.824Z,11.40
2023-02-22T16:39:29.922Z,8.60
2023-02-22T16:41:58.310Z,11.07
2023-02-22T16:44:25.392Z,11.70
2023-02-22T16:46:52.777Z,12.70
2023-02-22T16:49:20.459Z,13.20
2023-02-22T16:51:47.783Z,12.23
2023-02-22T16:54:17.775Z,14.17
2023-02-22T16:56:44.472Z,17.30
2023-02-22T16:59:13.960Z,16.07
2023-02-22T17:01:41.068Z,14.43
2023-02-22T17:04:14.474Z,13.27
2023-02-22T17:06:41.252Z,13.10
2023-02-22T17:09:08.066Z,12.10
2023-02-22T17:11:35.729Z,11.20
2023-02-22T17:14:02.496Z,10.60
2023-02-22T17:16:29.226Z,10.63
2023-02-22T17:18:56.244Z,10.17
2023-02-22T17:21:23.122Z,11.37
2023-02-22T17:23:49.774Z,11.40
2023-02-22T17:26:16.938Z,11.57
2023-02-22T17:28:43.914Z,11.40
2023-02-22T17:31:22.101Z,12.00
2023-02-22T17:33:48.807Z,10.43
2023-02-22T17:36:15.916Z,10.43
2023-02-22T17:38:43.226Z,11.10
2023-02-22T17:41:09.876Z,12.67
2023-02-22T17:43:36.698Z,13.63
2023-02-22T17:46:08.000Z,13.93
2023-02-22T17:48:35.311Z,13.17
2023-02-22T17:51:09.252Z,13.63
2023-02-22T17:53:35.991Z,13.57
2023-02-22T17:56:10.528Z,14.27
2023-02-22T17:58:37.292Z,15.13
2023-02-22T18:01:04.198Z,14.53
2023-02-22T18:03:30.900Z,15.13
2023-02-22T18:05:59.956Z,17.50
2023-02-22T18:08:27.847Z,14.93
2023-02-22T18:10:57.498Z,15.80
2023-02-22T18:13:25.525Z,15.73
2023-02-22T18:15:52.303Z,14.77
2023-02-22T18:18:19.087Z,15.57
2023-02-22T18:20:51.530Z,15.00
2023-02-22T18:23:19.895Z,16.73
2023-02-22T18:26:07.690Z,14.53
2023-02-22T18:28:36.232Z,14.70
2023-02-22T18:31:07.621Z,13.97
2023-02-22T18:33:34.310Z,15.23
2023-02-22T18:36:01.038Z,13.40
2023-02-22T18:38:27.778Z,13.60
2023-02-22T18:41:01.752Z,14.57
2023-02-22T18:43:28.600Z,14.90
2023-02-22T18:45:59.225Z,14.17
2023-02-22T18:48:25.908Z,15.47
2023-02-22T18:50:52.558Z,13.90
2023-02-22T18:53:19.230Z,15.17
2023-02-22T18:55:45.890Z,15.50
2023-02-22T18:58:12.544Z,16.83
2023-02-22T19:00:39.293Z,17.10
2023-02-22T19:03:06.136Z,17.03
2023-02-22T19:05:33.341Z,15.30
2023-02-22T19:08:00.906Z,16.40
2023-02-22T19:10:28.253Z,15.33
2023-02-22T19:12:54.932Z,18.10
2023-02-22T19:15:21.605Z,15.90
2023-02-22T19:17:48.296Z,18.40
2023-02-22T19:20:15.047Z,22.90
2023-02-22T19:22:41.798Z,17.80
2023-02-22T19:25:08.461Z,15.70
2023-02-22T19:27:35.636Z,16.30
2023-02-22T19:30:04.513Z,16.60
2023-02-22T19:32:33.434Z,15.60
2023-02-22T19:35:02.231Z,16.00
2023-02-22T19:37:34.063Z,15.10
2023-02-22T19:40:02.478Z,15.67
2023-02-22T19:42:29.674Z,16.10
2023-02-22T19:44:56.353Z,16.00
2023-02-22T19:47:23.017Z,16.20
2023-02-22T19:49:50.228Z,17.43
2023-02-22T19:52:17.040Z,15.77
2023-02-22T19:54:44.579Z,18.00
2023-02-22T19:57:11.393Z,15.43
2023-02-22T19:59:39.044Z,18.97
2023-02-22T20:02:06.541Z,20.77
2023-02-22T20:04:35.115Z,20.73
2023-02-22T20:07:02.081Z,18.23
2023-02-22T20:09:29.987Z,16.67
2023-02-22T20:11:56.943Z,16.23
2023-02-22T20:14:26.045Z,15.30
2023-02-22T20:16:53.178Z,15.90
2023-02-22T20:19:21.060Z,15.63
2023-02-22T20:21:47.769Z,14.73
2023-02-22T20:24:18.520Z,13.67
2023-02-22T20:26:46.437Z,13.87
2023-02-22T20:29:13.305Z,14.40
2023-02-22T20:31:41.294Z,14.90
2023-02-22T20:34:09.661Z,14.17
2023-02-22T20:36:37.827Z,14.03
2023-02-22T20:39:07.506Z,14.17
2023-02-22T20:41:35.172Z,15.03
2023-02-22T20:44:02.479Z,14.20
2023-02-22T20:46:31.746Z,15.63
2023-02-22T20:48:59.947Z,15.17
2023-02-22T20:51:27.420Z,16.00
2023-02-22T20:53:54.357Z,14.93
2023-02-22T20:56:22.344Z,13.77
2023-02-22T20:58:49.109Z,15.83
2023-02-22T21:01:19.830Z,13.53
2023-02-22T21:03:46.987Z,16.07
2023-02-22T21:06:17.498Z,15.70
2023-02-22T21:08:45.359Z,14.80
2023-02-22T21:11:16.202Z,14.90
2023-02-22T21:13:43.044Z,15.33
2023-02-22T21:16:10.642Z,16.10
2023-02-22T21:18:37.331Z,15.10
2023-02-22T21:21:12.631Z,13.93
2023-02-22T21:23:43.046Z,14.33
2023-02-22T21:26:14.461Z,13.83
2023-02-22T21:28:50.784Z,13.93
2023-02-22T21:31:19.036Z,14.07
2023-02-22T21:33:48.061Z,14.30
2023-02-22T21:36:14.856Z,13.27
2023-02-22T21:38:42.280Z,12.37
2023-02-22T21:41:12.735Z,13.90
2023-02-22T21:43:40.121Z,12.63
2023-02-22T21:46:07.268Z,13.13
2023-02-22T21:48:34.798Z,13.17
2023-02-22T21:51:13.898Z,15.27
2023-02-22T21:53:47.985Z,13.27
2023-02-22T21:56:15.866Z,14.33
2023-02-22T21:58:43.699Z,13.10
2023-02-22T22:01:10.560Z,13.80
2023-02-22T22:03:37.344Z,14.67
2023-02-22T22:06:09.872Z,15.17
2023-02-22T22:08:40.103Z,15.87
2023-02-22T22:11:10.305Z,15.57
2023-02-22T22:13:38.244Z,15.37
2023-02-22T22:16:14.790Z,18.00
2023-02-22T22:18:41.924Z,15.93
2023-02-22T22:21:16.234Z,15.97
2023-02-22T22:23:45.442Z,15.20
2023-02-22T22:26:12.296Z,13.23
2023-02-22T22:28:46.190Z,14.53
2023-02-22T22:31:13.195Z,13.17
2023-02-22T22:33:43.690Z,14.17
2023-02-22T22:36:10.635Z,13.97
2023-02-22T22:38:40.115Z,13.37
2023-02-22T22:41:07.715Z,15.30
2023-02-22T22:43:35.282Z,15.60
2023-02-22T22:46:03.094Z,15.03
2023-02-22T22:48:31.397Z,14.27
2023-02-22T22:51:02.532Z,14.57
2023-02-22T22:53:33.296Z,14.83
2023-02-22T22:56:04.675Z,13.10
2023-02-22T22:58:33.939Z,13.47
2023-02-22T23:01:05.931Z,14.40
2023-02-22T23:03:36.965Z,15.67
2023-02-22T23:06:04.548Z,13.53
2023-02-22T23:08:42.950Z,15.10
2023-02-22T23:11:12.867Z,14.00
2023-02-22T23:13:39.805Z,13.63
2023-02-22T23:16:13.035Z,15.10
2023-02-22T23:18:43.283Z,13.97
2023-02-22T23:21:10.760Z,14.90
2023-02-22T23:23:37.798Z,14.20
2023-02-22T23:26:11.624Z,13.77
2023-02-22T23:28:39.767Z,14.00
2023-02-22T23:31:10.302Z,13.33
2023-02-22T23:33:38.377Z,14.87
2023-02-22T23:36:06.257Z,16.57
2023-02-22T23:38:34.841Z,15.50
2023-02-22T23:41:02.870Z,13.87
2023-02-22T23:43:32.588Z,14.00
2023-02-22T23:46:03.554Z,14.20
2023-02-22T23:48:30.389Z,14.70
2023-02-22T23:50:59.312Z,13.03
2023-02-22T23:53:26.544Z,14.30
2023-02-22T23:55:53.425Z,15.77
2023-02-22T23:58:23.086Z,14.47
